Kevil, Kentucky
Current Conditions -  °F | °C
As of 10:53 AM on Saturday 22 Nov 2014 (Local Time) from KPAH Reporting Station
Overcast Overcast  
Wind Chill: 16°   Ceiling: 5000
Heat Index: 16°   Visibility: 10mi
Dew Point:   Wind: 10mph
Humidity: 48%   Direction: 210°SSW
Pressure: 30.2"   Gusts: 20mph
Location:  37.09°N, 88.89°W
Report Text: KPAH 221653Z 21009G17KT 10SM OVC050 16/05 A3020 RMK AO2 RAB13E25 SLP227 P0000 T01610050
Loading
Personal Weather Stations






























Interactive Weather Map New forecast layout! Learn more

10-Day Weather Forecast

Advertisements
Track Severe Weather on mobile